Time;durP1;ratioP1;P1;durP2;ratioP2;P2;SDS_P1;SDS_P2;PMS_P1;PMS_P2;Temp;Humidity;BMP_temperature;BMP_pressure;BME280_temperature;BME280_humidity;BME280_pressure;Samples;Min_cycle;Max_cycle;Signal;HPM_P1;HPM_P2
2022/10/20 00:01:40;;;;;;;3.40;0.80;;;;;;;3.88;100.00;99271.54;1563046;91;21005;-83
2022/10/20 00:04:09;;;;;;;1.47;0.70;;;;;;;3.83;100.00;99266.94;1560440;90;20993;-81
2022/10/20 00:06:46;;;;;;;1.35;0.55;;;;;;;3.79;100.00;99271.30;1560000;92;21551;-82
2022/10/20 00:09:12;;;;;;;1.25;0.85;;;;;;;3.76;100.00;99262.36;1557951;91;21064;-83
2022/10/20 00:11:44;;;;;;;6.37;0.88;;;;;;;3.73;100.00;99266.98;1560691;90;21131;-84
2022/10/20 00:14:15;;;;;;;0.95;0.60;;;;;;;3.70;100.00;99268.08;1544735;93;20973;-83
2022/10/20 00:16:46;;;;;;;0.70;0.70;;;;;;;3.67;100.00;99269.99;1560020;90;21495;-82
2022/10/20 00:19:18;;;;;;;1.15;0.57;;;;;;;3.64;100.00;99267.28;1560243;92;21012;-84
2022/10/20 00:21:50;;;;;;;3.87;0.93;;;;;;;3.63;100.00;99276.52;1559972;92;21512;-83
2022/10/20 00:24:22;;;;;;;2.70;0.75;;;;;;;3.61;100.00;99273.27;1543147;92;20989;-82
2022/10/20 00:26:53;;;;;;;1.85;0.45;;;;;;;3.62;100.00;99272.17;1559921;91;20993;-82
2022/10/20 00:29:22;;;;;;;2.70;0.90;;;;;;;3.64;100.00;99275.43;1559920;92;20981;-81
2022/10/20 00:31:50;;;;;;;4.20;0.98;;;;;;;3.64;100.00;99272.17;1559962;92;20976;-81
2022/10/20 00:34:16;;;;;;;4.25;0.88;;;;;;;3.64;100.00;99274.07;1560065;89;21103;-82
2022/10/20 00:36:52;;;;;;;3.95;1.20;;;;;;;3.65;100.00;99282.48;1542974;92;21024;-81
2022/10/20 00:39:27;;;;;;;4.20;0.93;;;;;;;3.69;100.00;99275.41;1562234;91;21127;-82
2022/10/20 00:41:54;;;;;;;;;;;;;;;3.69;100.00;99275.41;1562654;92;20993;-82
2022/10/20 00:44:58;;;;;;;5.35;0.70;;;;;;;3.70;100.00;99284.37;1534850;93;20850;-82
2022/10/20 00:47:39;;;;;;;1.90;0.70;;;;;;;3.65;100.00;99285.20;1545036;93;21048;-82
2022/10/20 00:50:16;;;;;;;1.25;0.72;;;;;;;3.56;100.00;99280.06;1555642;91;21299;-82
2022/10/20 00:52:49;;;;;;;1.85;0.70;;;;;;;3.48;100.00;99284.70;1547451;91;21539;-81
2022/10/20 00:55:26;;;;;;;1.50;0.50;;;;;;;3.42;100.00;99273.62;1541966;91;20941;-81
2022/10/20 00:57:56;;;;;;;2.70;0.60;;;;;;;3.36;100.00;99282.86;1541933;93;20996;-81
2022/10/20 01:00:29;;;;;;;2.92;0.60;;;;;;;3.30;100.00;99278.80;1542592;91;21567;-82
2022/10/20 01:03:05;;;;;;;2.72;0.80;;;;;;;3.26;100.00;99291.83;1556160;91;21156;-81
2022/10/20 01:05:37;;;;;;;1.30;0.68;;;;;;;3.23;100.00;99293.19;1545361;92;20958;-82
2022/10/20 01:08:10;;;;;;;2.33;0.80;;;;;;;3.21;100.00;99287.77;1559429;91;21556;-80
2022/10/20 01:10:45;;;;;;;5.30;0.90;;;;;;;3.20;100.00;99291.02;1543036;92;20989;-81
2022/10/20 01:13:30;;;;;;;2.60;0.90;;;;;;;3.19;100.00;99294.01;1558384;91;21496;-82
2022/10/20 01:16:55;;;;;;;3.33;0.78;;;;;;;3.16;100.00;99295.37;1559343;91;21851;-82
2022/10/20 01:19:55;;;;;;;0.80;0.45;;;;;;;3.13;100.00;99298.63;1560622;90;21497;-83
2022/10/20 01:23:13;;;;;;;1.45;0.50;;;;;;;3.06;100.00;99288.59;1559689;92;21504;-82
2022/10/20 01:26:09;;;;;;;6.03;1.10;;;;;;;3.03;100.00;99292.39;1560099;90;20993;-82
2022/10/20 01:29:00;;;;;;;1.77;0.90;;;;;;;2.97;100.00;99278.84;1525062;92;21537;-82
2022/10/20 01:31:44;;;;;;;3.00;0.75;;;;;;;2.95;100.00;99296.47;1578206;89;20965;-82
2022/10/20 01:34:37;;;;;;;2.35;0.80;;;;;;;2.90;100.00;99306.77;1602788;89;21049;-80
2022/10/20 01:37:13;;;;;;;1.05;0.68;;;;;;;2.89;100.00;99309.75;1603238;89;20964;-79
2022/10/20 01:39:52;;;;;;;1.67;0.68;;;;;;;2.84;100.00;99313.30;1590499;89;21376;-83
2022/10/20 01:42:24;;;;;;;1.77;0.80;;;;;;;2.79;100.00;99317.37;1601870;89;20964;-84
2022/10/20 01:44:57;;;;;;;1.25;0.53;;;;;;;2.76;100.00;99320.62;1603127;87;21834;-84
2022/10/20 01:47:31;;;;;;;3.45;1.00;;;;;;;2.73;100.00;99314.92;1603345;89;20979;-82
2022/10/20 01:50:03;;;;;;;4.47;0.90;;;;;;;2.73;100.00;99304.08;1572791;90;20928;-84
2022/10/20 01:52:39;;;;;;;6.47;1.00;;;;;;;2.75;100.00;99318.98;1549487;91;21009;-85
2022/10/20 01:55:20;;;;;;;1.98;0.90;;;;;;;2.79;100.00;99318.72;1566192;91;20949;-85
2022/10/20 01:58:03;;;;;;;1.55;0.70;;;;;;;2.83;100.00;99330.66;1539204;91;20941;-84
2022/10/20 02:00:34;;;;;;;5.83;0.90;;;;;;;2.84;100.00;99326.05;1583022;89;21587;-84
2022/10/20 02:03:18;;;;;;;3.83;1.00;;;;;;;2.82;100.00;99322.25;1603680;89;21013;-85
2022/10/20 02:06:12;;;;;;;5.40;1.17;;;;;;;2.83;100.00;99318.45;1529263;91;20984;-84
2022/10/20 02:08:58;;;;;;;2.85;1.02;;;;;;;2.84;100.00;99334.18;1573585;89;21553;-84
2022/10/20 02:11:35;;;;;;;3.30;0.85;;;;;;;2.83;100.00;99326.59;1591701;89;21162;-84
2022/10/20 02:14:08;;;;;;;1.72;0.85;;;;;;;2.83;100.00;99337.97;1589820;90;20961;-82
2022/10/20 02:16:40;;;;;;;1.62;0.82;;;;;;;2.82;100.00;99330.92;1572639;90;21487;-83
2022/10/20 02:19:08;;;;;;;1.47;0.85;;;;;;;2.82;100.00;99330.37;1596865;89;21115;-83
2022/10/20 02:21:42;;;;;;;0.57;0.45;;;;;;;2.83;100.00;99333.91;1559687;91;20985;-84
2022/10/20 02:24:12;;;;;;;3.87;0.65;;;;;;;2.81;100.00;99338.78;1568576;90;21277;-83
2022/10/20 02:26:43;;;;;;;2.77;0.78;;;;;;;2.75;100.00;99334.44;1547657;92;21029;-84
2022/10/20 02:29:18;;;;;;;1.72;1.05;;;;;;;2.70;100.00;99342.56;1559546;92;21176;-85
2022/10/20 02:31:48;;;;;;;4.83;0.82;;;;;;;2.67;100.00;99346.63;1525923;93;21091;-85
2022/10/20 02:34:15;;;;;;;5.90;1.67;;;;;;;2.63;100.00;99343.64;1563070;90;21127;-84
2022/10/20 02:36:49;;;;;;;9.88;1.72;;;;;;;2.59;100.00;99338.48;1559957;92;21767;-84
2022/10/20 02:39:13;;;;;;;2.20;1.25;;;;;;;2.55;100.00;99345.52;1549784;91;20987;-85
2022/10/20 02:41:46;;;;;;;3.23;1.20;;;;;;;2.53;100.00;99346.33;1540904;92;20996;-84
2022/10/20 02:44:16;;;;;;;1.92;1.10;;;;;;;2.49;100.00;99347.94;1550268;90;21419;-85
2022/10/20 02:46:48;;;;;;;2.22;1.22;;;;;;;2.42;100.00;99347.38;1550590;92;20973;-85
2022/10/20 02:49:20;;;;;;;2.72;0.95;;;;;;;2.35;100.00;99350.88;1551063;92;21829;-84
2022/10/20 02:51:52;;;;;;;2.27;0.80;;;;;;;2.28;100.00;99351.70;1551011;92;21581;-85
2022/10/20 02:54:26;;;;;;;2.47;0.72;;;;;;;2.27;100.00;99350.08;1575012;90;20973;-85
2022/10/20 02:56:59;;;;;;;5.45;0.90;;;;;;;2.25;100.00;99361.17;1563850;91;20949;-86
2022/10/20 02:59:33;;;;;;;1.80;0.93;;;;;;;2.21;100.00;99360.08;1563847;91;21506;-85
2022/10/20 03:02:01;;;;;;;1.32;0.60;;;;;;;2.18;100.00;99361.14;1572892;91;21306;-85
2022/10/20 03:04:32;;;;;;;0.70;0.60;;;;;;;2.16;100.00;99361.41;1572502;90;21049;-85
2022/10/20 03:07:04;;;;;;;1.33;0.57;;;;;;;2.17;100.00;99369.00;1580487;90;21016;-85
2022/10/20 03:09:35;;;;;;;2.47;1.20;;;;;;;2.16;100.00;99362.77;1577594;89;20984;-81
2022/10/20 03:12:07;;;;;;;2.67;0.70;;;;;;;2.14;100.00;99366.81;1587017;89;21467;-83
2022/10/20 03:14:39;;;;;;;2.25;0.75;;;;;;;2.12;100.00;99371.14;1573469;90;21866;-86
2022/10/20 03:17:07;;;;;;;2.80;1.00;;;;;;;2.12;100.00;99367.08;1562011;90;21566;-78
2022/10/20 03:19:41;;;;;;;2.83;0.60;;;;;;;2.08;100.00;99363.81;1566665;91;21020;-76
2022/10/20 03:22:08;;;;;;;5.12;0.78;;;;;;;2.01;100.00;99365.95;1574192;90;20944;-76
2022/10/20 03:24:40;;;;;;;2.50;0.75;;;;;;;1.95;100.00;99367.27;1583605;89;21067;-76
2022/10/20 03:27:07;;;;;;;2.98;0.60;;;;;;;1.94;100.00;99368.35;1574149;90;21129;-75
2022/10/20 03:29:39;;;;;;;1.05;0.30;;;;;;;1.94;100.00;99366.19;1586824;89;20953;-79
2022/10/20 03:32:09;;;;;;;7.55;0.68;;;;;;;1.94;100.00;99371.59;1586914;89;21024;-78
2022/10/20 03:34:41;;;;;;;1.95;0.90;;;;;;;1.93;100.00;99357.79;1544045;91;21014;-83
2022/10/20 03:37:09;;;;;;;2.27;0.65;;;;;;;1.96;100.00;99365.38;1551773;91;21133;-81
2022/10/20 03:39:37;;;;;;;2.27;0.80;;;;;;;2.02;100.00;99371.09;1591700;90;21681;-81
2022/10/20 03:42:08;;;;;;;4.45;0.57;;;;;;;2.08;100.00;99378.70;1590378;88;21438;-82
2022/10/20 03:44:37;;;;;;;0.90;0.50;;;;;;;2.13;100.00;99380.08;1600126;88;21479;-82
2022/10/20 03:47:09;;;;;;;0.78;0.50;;;;;;;2.18;100.00;99378.75;1560697;89;20905;-83
2022/10/20 03:49:40;;;;;;;1.40;0.70;;;;;;;2.20;100.00;99378.76;1580292;89;21009;-80
2022/10/20 03:52:17;;;;;;;11.22;1.10;;;;;;;2.26;100.00;99385.02;1599945;89;21138;-82
2022/10/20 03:54:48;;;;;;;1.82;0.70;;;;;;;2.30;100.00;99379.34;1606186;88;21014;-82
2022/10/20 03:57:15;;;;;;;1.85;0.98;;;;;;;2.34;100.00;99381.77;1598230;89;21555;-69
2022/10/20 03:59:42;;;;;;;3.30;1.22;;;;;;;2.36;100.00;99376.89;1596704;89;20929;-79
2022/10/20 04:02:35;;;;;;;1.42;0.70;;;;;;;2.37;100.00;99385.30;1598693;89;21016;-69
2022/10/20 04:05:09;;;;;;;4.37;0.42;;;;;;;2.36;100.00;99386.91;1579428;89;20924;-71
2022/10/20 04:07:37;;;;;;;4.00;0.80;;;;;;;2.32;100.00;99375.80;1598704;89;21641;-72
2022/10/20 04:10:06;;;;;;;1.17;0.60;;;;;;;2.29;100.00;99374.46;1598027;89;21135;-71
2022/10/20 04:12:37;;;;;;;2.77;0.80;;;;;;;2.29;100.00;99382.59;1599997;89;20988;-71
2022/10/20 04:15:09;;;;;;;1.62;0.60;;;;;;;2.30;100.00;99383.41;1599941;89;21482;-71
2022/10/20 04:17:44;;;;;;;1.47;0.50;;;;;;;2.29;100.00;99381.77;1556206;91;20995;-72
2022/10/20 04:20:12;;;;;;;;;;;;;;;2.28;100.00;99386.38;1580716;89;21106;-78
2022/10/20 04:22:43;;;;;;;4.53;1.05;;;;;;;2.26;100.00;99383.66;1605762;89;20094;-83
2022/10/20 04:25:15;;;;;;;2.45;0.62;;;;;;;2.24;100.00;99395.30;1603289;89;21583;-71
2022/10/20 04:27:47;;;;;;;1.92;0.93;;;;;;;2.22;100.00;99395.56;1596205;89;20968;-68
2022/10/20 04:30:18;;;;;;;3.17;0.90;;;;;;;2.23;100.00;99397.73;1586566;89;21468;-68
2022/10/20 04:32:53;;;;;;;3.27;0.93;;;;;;;2.23;100.00;99397.73;1606366;89;20931;-68
2022/10/20 04:35:24;;;;;;;3.10;0.70;;;;;;;2.22;100.00;99404.23;1605844;89;20987;-67
2022/10/20 04:37:55;;;;;;;3.02;0.98;;;;;;;2.23;100.00;99400.44;1604843;89;21011;-68
2022/10/20 04:40:25;;;;;;;4.58;1.00;;;;;;;2.24;100.00;99398.01;1604724;89;20924;-68
2022/10/20 04:42:58;;;;;;;1.65;0.68;;;;;;;2.26;100.00;99402.62;1605657;89;21172;-70
2022/10/20 04:45:27;;;;;;;5.15;0.88;;;;;;;2.28;100.00;99408.59;1606579;89;20936;-71
2022/10/20 04:47:57;;;;;;;1.32;0.65;;;;;;;2.29;100.00;99412.92;1606183;89;20892;-69
2022/10/20 04:50:28;;;;;;;2.77;1.22;;;;;;;2.30;100.00;99414.02;1606595;89;20969;-69
2022/10/20 04:53:01;;;;;;;1.92;0.80;;;;;;;2.30;100.00;99410.49;1605253;89;21023;-68
2022/10/20 04:55:33;;;;;;;2.77;0.90;;;;;;;2.31;100.00;99408.06;1586726;89;21008;-68
2022/10/20 04:58:08;;;;;;;4.95;1.10;;;;;;;2.32;100.00;99419.14;1606166;89;20979;-69
2022/10/20 05:00:40;;;;;;;6.75;2.00;;;;;;;2.35;100.00;99425.38;1606946;87;20948;-81
2022/10/20 05:03:08;;;;;;;3.37;1.12;;;;;;;2.37;100.00;99421.87;1613128;87;20975;-73
2022/10/20 05:05:35;;;;;;;1.85;0.93;;;;;;;2.40;100.00;99419.17;1585760;89;20924;-75
2022/10/20 05:08:04;;;;;;;2.40;1.20;;;;;;;2.42;100.00;99427.84;1579401;91;21898;-72
2022/10/20 05:10:32;;;;;;;4.10;1.42;;;;;;;2.45;100.00;99422.71;1577417;89;21515;-78
2022/10/20 05:13:00;;;;;;;2.65;1.50;;;;;;;2.43;100.00;99433.00;1548671;91;20979;-74
2022/10/20 05:15:29;;;;;;;17.00;1.35;;;;;;;2.41;100.00;99427.57;1601108;89;21044;-73
2022/10/20 05:17:58;;;;;;;4.50;1.40;;;;;;;2.41;100.00;99432.99;1638182;87;20967;-80
2022/10/20 05:20:25;;;;;;;4.58;1.62;;;;;;;2.41;100.00;99437.87;1633754;87;21161;-75
2022/10/20 05:22:53;;;;;;;4.08;1.30;;;;;;;2.44;100.00;99439.23;1634125;87;20988;-86
2022/10/20 05:25:20;;;;;;;3.15;1.10;;;;;;;2.45;100.00;99445.74;1613307;87;21005;-73
2022/10/20 05:27:48;;;;;;;4.67;1.47;;;;;;;2.45;100.00;99443.03;1633676;87;20963;-71
2022/10/20 05:30:17;;;;;;;3.17;1.90;;;;;;;2.49;100.00;99441.42;1633088;87;20889;-73
2022/10/20 05:32:46;;;;;;;3.35;1.07;;;;;;;2.51;100.00;99446.04;1633903;87;21629;-79
2022/10/20 05:35:22;;;;;;;3.62;1.80;;;;;;;2.49;100.00;99437.91;1632184;87;21121;-80
2022/10/20 05:37:51;;;;;;;2.47;1.27;;;;;;;2.51;100.00;99448.75;1595379;89;20936;-73
2022/10/20 05:40:19;;;;;;;5.35;1.62;;;;;;;2.49;100.00;99450.91;1593267;89;21043;-85
2022/10/20 05:42:53;;;;;;;2.27;1.17;;;;;;;2.42;100.00;99449.52;1595661;88;20989;-84
2022/10/20 05:45:27;;;;;;;3.10;1.27;;;;;;;2.38;100.00;99447.06;1595306;89;21782;-84
2022/10/20 05:47:58;;;;;;;2.67;1.40;;;;;;;2.33;100.00;99461.41;1605885;88;20993;-75
2022/10/20 05:50:27;;;;;;;3.15;1.37;;;;;;;2.32;100.00;99466.55;1608448;88;20972;-72
2022/10/20 05:52:59;;;;;;;4.37;1.55;;;;;;;2.30;100.00;99466.02;1607118;88;20915;-71
2022/10/20 05:55:27;;;;;;;3.02;1.27;;;;;;;2.22;100.00;99467.34;1605729;88;20956;-71
2022/10/20 05:57:55;;;;;;;2.08;1.30;;;;;;;2.16;100.00;99463.51;1606626;88;21463;-71
2022/10/20 06:00:30;;;;;;;3.02;1.15;;;;;;;2.10;100.00;99467.27;1610323;88;20955;-77
2022/10/20 06:03:00;;;;;;;7.03;1.52;;;;;;;2.06;100.00;99472.92;1602872;88;21052;-78
2022/10/20 06:05:31;;;;;;;5.83;1.12;;;;;;;2.02;100.00;99467.76;1611851;88;20920;-77
2022/10/20 06:08:00;;;;;;;3.37;1.40;;;;;;;2.01;100.00;99474.25;1608408;87;21059;-73
2022/10/20 06:10:31;;;;;;;2.98;1.05;;;;;;;1.97;100.00;99471.24;1606896;88;21182;-77
2022/10/20 06:13:00;;;;;;;9.15;1.57;;;;;;;1.96;100.00;99475.03;1612161;88;20975;-79
2022/10/20 06:15:29;;;;;;;2.42;1.40;;;;;;;1.96;100.00;99470.43;1598777;88;21479;-79
2022/10/20 06:17:58;;;;;;;4.15;1.67;;;;;;;1.97;100.00;99478.83;1580493;89;20955;-79
2022/10/20 06:20:29;;;;;;;2.52;1.57;;;;;;;2.02;100.00;99485.36;1592091;89;20899;-81
2022/10/20 06:23:03;;;;;;;6.53;1.15;;;;;;;2.03;100.00;99486.45;1568809;91;21284;-71
2022/10/20 06:25:29;;;;;;;3.67;1.65;;;;;;;2.04;100.00;99487.27;1558959;91;21024;-70
2022/10/20 06:27:56;;;;;;;7.92;1.67;;;;;;;2.08;100.00;99484.31;1527161;92;21653;-70
2022/10/20 06:30:29;;;;;;;19.65;9.93;;;;;;;2.11;100.00;99488.66;1545828;92;21057;-72
2022/10/20 06:33:00;;;;;;;12.58;6.83;;;;;;;2.17;100.00;99486.80;1523014;92;21002;-69
2022/10/20 06:35:31;;;;;;;10.93;6.08;;;;;;;2.24;100.00;99492.27;1556452;90;21147;-73
2022/10/20 06:38:03;;;;;;;;;;;;;;;2.29;100.00;99494.19;1561432;90;20975;-74
2022/10/20 06:40:34;;;;;;;9.03;2.05;;;;;;;2.33;100.00;99495.27;1555744;91;20101;-71
2022/10/20 06:43:01;;;;;;;8.23;4.65;;;;;;;2.38;100.00;99494.48;1555851;91;21011;-77
2022/10/20 06:45:32;;;;;;;3.62;1.90;;;;;;;2.39;100.00;99491.50;1546249;90;21028;-87
2022/10/20 06:48:04;;;;;;;8.80;2.42;;;;;;;2.40;100.00;99495.03;1565107;91;21197;-71
2022/10/20 06:50:33;;;;;;;4.45;2.33;;;;;;;2.40;100.00;99495.84;1592672;89;21047;-73
2022/10/20 06:53:02;;;;;;;4.92;2.22;;;;;;;2.40;100.00;99502.62;1584291;89;21579;-74
2022/10/20 06:55:29;;;;;;;5.22;2.58;;;;;;;2.43;100.00;99503.45;1579055;89;21047;-72
2022/10/20 06:57:57;;;;;;;8.38;2.47;;;;;;;2.44;100.00;99511.03;1567191;89;21587;-73
2022/10/20 07:00:28;;;;;;;11.15;2.85;;;;;;;2.43;100.00;99514.83;1553510;91;21627;-76
2022/10/20 07:02:56;;;;;;;3.60;2.12;;;;;;;2.43;100.00;99516.99;1579826;89;21467;-74
2022/10/20 07:05:28;;;;;;;2.77;1.45;;;;;;;2.46;100.00;99518.36;1589914;89;20940;-83
2022/10/20 07:08:01;;;;;;;5.03;1.98;;;;;;;2.46;100.00;99500.75;1557257;89;20996;-79
2022/10/20 07:10:28;;;;;;;5.33;2.58;;;;;;;2.43;100.00;99522.41;1582108;89;20952;-74
2022/10/20 07:12:59;;;;;;;6.92;2.60;;;;;;;2.42;100.00;99514.55;1567950;89;21091;-73
2022/10/20 07:15:29;;;;;;;5.17;2.40;;;;;;;2.43;100.00;99519.70;1588678;89;20916;-72
2022/10/20 07:18:03;;;;;;;6.35;2.40;;;;;;;2.44;100.00;99515.91;1582318;89;21058;-72
2022/10/20 07:20:36;;;;;;;5.97;2.33;;;;;;;2.44;100.00;99520.52;1594367;89;21475;-74
2022/10/20 07:23:07;;;;;;;6.40;2.95;;;;;;;2.42;100.00;99524.84;1582328;89;21031;-72
2022/10/20 07:25:38;;;;;;;3.98;1.92;;;;;;;2.43;100.00;99529.19;1583250;89;21180;-78
2022/10/20 07:28:14;;;;;;;4.05;1.85;;;;;;;2.47;100.00;99522.16;1568436;89;21468;-75
2022/10/20 07:30:44;;;;;;;6.40;2.08;;;;;;;2.45;100.00;99525.67;1581583;89;21007;-78
2022/10/20 07:33:12;;;;;;;5.35;2.27;;;;;;;2.45;100.00;99533.80;1585797;89;21556;-80
2022/10/20 07:35:43;;;;;;;4.90;1.97;;;;;;;2.47;100.00;99526.77;1583193;89;21015;-76
2022/10/20 07:38:17;;;;;;;5.58;2.45;;;;;;;2.56;100.00;99531.97;1574165;89;21130;-74
2022/10/20 07:40:47;;;;;;;3.70;1.95;;;;;;;2.58;100.00;99532.52;1581356;89;21486;-74
2022/10/20 07:43:23;;;;;;;3.58;2.33;;;;;;;2.56;100.00;99533.32;1574172;89;21561;-74
2022/10/20 07:45:53;;;;;;;3.92;1.80;;;;;;;2.54;100.00;99540.90;1573293;91;20987;-74
2022/10/20 07:48:27;;;;;;;4.83;1.72;;;;;;;2.52;100.00;99538.45;1577450;91;21055;-71
2022/10/20 07:51:27;;;;;;;3.98;2.08;;;;;;;2.53;100.00;99534.66;1548275;90;20963;-74
2022/10/20 07:54:05;;;;;;;5.72;2.65;;;;;;;2.55;100.00;99546.59;1606463;89;21050;-73
2022/10/20 07:56:41;;;;;;;4.85;2.52;;;;;;;2.61;100.00;99548.25;1583507;90;21062;-72
2022/10/20 07:59:11;;;;;;;4.35;2.10;;;;;;;2.70;100.00;99546.67;1596620;88;21055;-74
2022/10/20 08:01:42;;;;;;;4.03;2.25;;;;;;;2.74;100.00;99545.61;1578477;91;21050;-74
2022/10/20 08:04:11;;;;;;;5.55;1.90;;;;;;;2.79;100.00;99545.09;1582593;89;20967;-74
2022/10/20 08:06:43;;;;;;;5.25;2.45;;;;;;;2.85;100.00;99549.45;1571876;91;21019;-73
2022/10/20 08:09:15;;;;;;;3.15;2.00;;;;;;;2.91;100.00;99555.68;1587677;88;21039;-73
2022/10/20 08:11:43;;;;;;;4.10;2.05;;;;;;;2.96;100.00;99556.52;1565631;91;20943;-71
2022/10/20 08:14:17;;;;;;;7.08;1.80;;;;;;;3.04;100.00;99553.84;1582622;90;21023;-71
2022/10/20 08:16:47;;;;;;;7.62;2.00;;;;;;;3.15;100.00;99556.86;1554755;92;21079;-76
2022/10/20 08:19:17;;;;;;;3.83;1.95;;;;;;;3.27;100.00;99560.69;1581927;90;21486;-75
2022/10/20 08:21:49;;;;;;;5.17;1.80;;;;;;;3.31;100.00;99555.81;1554682;92;21168;-74
2022/10/20 08:24:21;;;;;;;7.78;2.12;;;;;;;3.25;100.00;99562.31;1584918;89;21704;-73
2022/10/20 08:27:04;;;;;;;3.98;1.80;;;;;;;3.19;100.00;99563.38;1569485;89;20936;-74
2022/10/20 08:29:27;;;;;;;12.37;1.90;;;;;;;3.17;100.00;99568.26;1601943;89;21204;-71
2022/10/20 08:32:04;;;;;;;9.23;2.00;;;;;;;3.19;100.00;99572.88;1603443;89;20987;-73
2022/10/20 08:34:38;;;;;;;3.90;2.40;;;;;;;3.20;100.00;99571.80;1574627;90;21062;-74
2022/10/20 08:37:10;;;;;;;3.87;2.05;;;;;;;3.23;100.00;99571.80;1549951;91;20960;-76
2022/10/20 08:39:36;;;;;;;4.15;2.10;;;;;;;3.22;100.00;99575.05;1561396;90;21053;-68
2022/10/20 08:42:03;;;;;;;4.87;2.47;;;;;;;3.21;100.00;99574.78;1567363;90;21593;-69
2022/10/20 08:44:33;;;;;;;6.28;2.17;;;;;;;3.20;100.00;99578.58;1564756;90;21038;-69
2022/10/20 08:47:06;;;;;;;3.90;2.35;;;;;;;3.25;100.00;99580.49;1571120;89;20999;-74
2022/10/20 08:49:34;;;;;;;5.25;2.52;;;;;;;3.29;100.00;99592.44;1563376;91;20991;-71
2022/10/20 08:52:01;;;;;;;6.30;2.40;;;;;;;3.26;100.00;99596.50;1554829;92;21035;-70
2022/10/20 08:54:28;;;;;;;3.98;2.05;;;;;;;3.29;100.00;99600.04;1568218;89;21882;-73
2022/10/20 08:56:55;;;;;;;5.67;1.87;;;;;;;3.36;100.00;99597.08;1555903;90;20907;-74
2022/10/20 08:59:30;;;;;;;3.47;1.95;;;;;;;3.44;100.00;99605.24;1555132;92;21094;-75
2022/10/20 09:01:58;;;;;;;3.62;2.02;;;;;;;3.49;100.00;99609.30;1552929;92;20916;-71
2022/10/20 09:04:40;;;;;;;6.20;1.98;;;;;;;3.51;100.00;99609.30;1554403;92;21123;-73
2022/10/20 09:07:24;;;;;;;5.87;2.12;;;;;;;3.49;100.00;99611.47;1553998;92;21241;-73
2022/10/20 09:09:52;;;;;;;4.33;2.22;;;;;;;3.46;100.00;99612.03;1549255;90;21038;-72
2022/10/20 09:12:19;;;;;;;3.65;2.12;;;;;;;3.49;100.00;99609.30;1554360;92;21084;-72
2022/10/20 09:14:46;;;;;;;2.87;1.90;;;;;;;3.51;100.00;99617.45;1554999;92;20980;-72
2022/10/20 09:17:16;;;;;;;3.08;1.67;;;;;;;3.54;100.00;99625.05;1575992;90;21808;-76
2022/10/20 09:19:53;;;;;;;3.52;2.08;;;;;;;3.56;100.00;99622.08;1576494;90;21178;-74
2022/10/20 09:22:22;;;;;;;4.12;2.50;;;;;;;3.53;100.00;99624.78;1570845;89;21130;-75
2022/10/20 09:24:55;;;;;;;7.05;2.90;;;;;;;3.55;100.00;99629.40;1578423;91;20956;-91
2022/10/20 09:27:38;;;;;;;;;;;;;;;3.59;100.00;99632.39;1580141;89;20985;-87
2022/10/20 09:30:22;;;;;;;6.17;2.67;;;;;;;3.61;100.00;99631.05;1550847;90;20109;-91
2022/10/20 09:32:51;;;;;;;6.05;2.90;;;;;;;3.60;100.00;99638.09;1553629;91;21064;-80
2022/10/20 09:35:30;;;;;;;6.25;2.62;;;;;;;3.60;100.00;99644.88;1571083;91;21046;-77
2022/10/20 09:38:31;;;;;;;4.95;2.02;;;;;;;3.66;100.00;99642.45;1585235;89;21138;-76
2022/10/20 09:41:20;;;;;;;4.67;2.50;;;;;;;3.68;100.00;99642.19;1578725;89;21063;-75
2022/10/20 09:44:06;;;;;;;5.30;2.10;;;;;;;3.56;100.00;99646.50;1591359;88;21056;-76
2022/10/20 09:46:38;;;;;;;5.25;2.05;;;;;;;3.56;100.00;99646.50;1591827;89;20941;-71
2022/10/20 09:49:07;;;;;;;7.37;2.35;;;;;;;3.53;100.00;99654.64;1591334;90;20984;-74
2022/10/20 09:51:35;;;;;;;6.40;2.40;;;;;;;3.52;100.00;99652.19;1576181;90;21532;-74
2022/10/20 09:54:06;;;;;;;6.53;2.25;;;;;;;3.51;100.00;99650.02;1593305;89;21104;-75
2022/10/20 09:56:36;;;;;;;6.75;2.45;;;;;;;3.52;100.00;99658.44;1595993;89;21055;-73
2022/10/20 09:59:06;;;;;;;4.75;2.83;;;;;;;3.50;100.00;99655.17;1593710;89;21092;-75
2022/10/20 10:01:35;;;;;;;5.60;2.65;;;;;;;3.49;100.00;99656.25;1597261;89;21597;-74
2022/10/20 10:04:01;;;;;;;5.15;2.42;;;;;;;3.56;100.00;99675.00;1597157;89;21099;-74
2022/10/20 10:06:41;;;;;;;7.58;2.62;;;;;;;3.60;100.00;99666.06;1594866;89;21012;-81
2022/10/20 10:09:34;;;;;;;4.35;2.33;;;;;;;3.65;100.00;99676.13;1582234;89;21551;-83
2022/10/20 10:12:20;;;;;;;3.98;2.35;;;;;;;3.64;100.00;99663.63;1591905;89;21245;-74
2022/10/20 10:14:57;;;;;;;7.08;2.22;;;;;;;3.61;100.00;99677.73;1592577;89;20960;-78
2022/10/20 10:17:44;;;;;;;4.58;3.30;;;;;;;3.63;100.00;99681.00;1591026;89;20976;-78
2022/10/20 10:20:16;;;;;;;5.20;2.60;;;;;;;3.65;100.00;99686.44;1593247;89;21008;-80
2022/10/20 10:22:49;;;;;;;3.75;2.37;;;;;;;3.67;100.00;99693.50;1594121;89;21015;-88
2022/10/20 10:25:32;;;;;;;3.85;2.08;;;;;;;3.70;100.00;99690.25;1578453;89;21140;-85
2022/10/20 10:28:07;;;;;;;7.33;2.12;;;;;;;3.71;100.00;99680.48;1587896;89;21113;-77
2022/10/20 10:30:37;;;;;;;3.58;1.90;;;;;;;3.75;100.00;99687.02;1591955;89;20995;-77
2022/10/20 10:33:27;;;;;;;6.65;2.08;;;;;;;3.79;100.00;99676.43;1593258;89;21056;-73
2022/10/20 10:35:54;;;;;;;6.90;2.70;;;;;;;3.80;100.00;99687.56;1605746;89;20959;-73
2022/10/20 10:38:25;;;;;;;6.70;2.60;;;;;;;3.84;100.00;99682.69;1582252;88;20971;-75
2022/10/20 10:41:03;;;;;;;3.55;2.05;;;;;;;3.89;100.00;99686.78;1575291;89;21064;-82
2022/10/20 10:44:01;;;;;;;3.75;2.25;;;;;;;3.91;100.00;99690.04;1572662;90;20991;-83
2022/10/20 10:46:38;;;;;;;5.47;2.20;;;;;;;3.95;100.00;99689.78;1583079;88;21019;-72
2022/10/20 10:49:41;;;;;;;2.90;2.10;;;;;;;4.01;100.00;99688.44;1603385;89;21116;-72
2022/10/20 10:52:35;;;;;;;5.80;2.47;;;;;;;4.01;100.00;99691.15;1604439;89;21005;-72
2022/10/20 10:55:34;;;;;;;4.00;2.02;;;;;;;4.03;100.00;99695.23;1603136;89;20965;-79
2022/10/20 10:58:27;;;;;;;3.58;2.12;;;;;;;4.12;100.00;99686.80;1602299;89;20987;-72
2022/10/20 11:01:37;;;;;;;5.80;2.65;;;;;;;4.12;100.00;99686.80;1603335;89;20981;-71
2022/10/20 11:04:36;;;;;;;3.87;2.17;;;;;;;4.14;100.00;99690.59;1602369;88;21000;-71
2022/10/20 11:07:40;;;;;;;5.37;2.45;;;;;;;4.30;100.00;99689.53;1603304;89;21811;-70
2022/10/20 11:10:40;;;;;;;5.35;2.47;;;;;;;4.30;100.00;99689.53;1571043;90;21000;-77
2022/10/20 11:13:42;;;;;;;3.30;2.10;;;;;;;4.39;100.00;99701.50;1591472;89;21062;-77
2022/10/20 11:16:45;;;;;;;3.47;2.20;;;;;;;4.44;100.00;99693.34;1572898;91;20984;-78
2022/10/20 11:19:59;;;;;;;7.72;2.30;;;;;;;4.48;100.00;99694.43;1603740;88;20928;-74
2022/10/20 11:22:57;;;;;;;4.22;2.50;;;;;;;4.54;100.00;99697.97;1576642;89;20892;-72
2022/10/20 11:25:55;;;;;;;5.05;2.72;;;;;;;4.57;100.00;99694.16;1585902;90;21005;-71
2022/10/20 11:28:43;;;;;;;4.33;2.40;;;;;;;4.62;100.00;99702.28;1582733;90;21498;-74
2022/10/20 11:31:40;;;;;;;3.40;2.10;;;;;;;4.69;100.00;99709.35;1584781;89;20992;-73
2022/10/20 11:34:29;;;;;;;2.40;1.80;;;;;;;4.71;100.00;99707.17;1589472;89;20969;-75
2022/10/20 11:37:05;;;;;;;3.95;1.70;;;;;;;4.71;100.00;99707.17;1571723;90;21063;-77
2022/10/20 11:39:41;;;;;;;3.75;1.70;;;;;;;4.76;100.00;99712.61;1587987;89;20984;-74
2022/10/20 11:42:34;;;;;;;4.85;2.00;;;;;;;4.83;100.00;99710.43;1577320;89;21618;-73
2022/10/20 11:45:13;;;;;;;2.95;2.00;;;;;;;4.98;100.00;99718.57;1556047;90;20937;-75
2022/10/20 11:47:47;;;;;;;4.78;1.62;;;;;;;5.03;98.99;99711.77;1566405;90;20968;-75
2022/10/20 11:50:21;;;;;;;5.65;2.00;;;;;;;5.09;98.43;99713.93;1561814;91;21626;-76
2022/10/20 11:53:22;;;;;;;4.08;2.02;;;;;;;5.09;98.43;99713.93;1543780;92;21455;-85
2022/10/20 11:56:18;;;;;;;2.77;1.70;;;;;;;5.33;98.51;99715.47;1543767;92;21510;-72
2022/10/20 11:59:05;;;;;;;6.55;3.22;;;;;;;5.33;98.51;99715.47;1551371;91;20919;-74
2022/10/20 12:02:22;;;;;;;9.90;3.65;;;;;;;5.44;96.25;99714.35;1541635;91;21036;-74
2022/10/20 12:05:16;;;;;;;8.93;3.33;;;;;;;5.46;96.50;99712.98;1549757;91;21123;-73
2022/10/20 12:08:09;;;;;;;5.35;2.90;;;;;;;5.50;95.10;99729.58;1550836;92;20919;-73
2022/10/20 12:11:12;;;;;;;4.22;2.00;;;;;;;5.56;95.43;99718.94;1542542;91;20953;-77
2022/10/20 12:13:48;;;;;;;5.70;1.95;;;;;;;5.97;93.35;99718.20;1550831;92;21086;-73